Doylestown, Pennsylvania
Current Conditions -  °F | °C
As of 12:54 PM on Friday 24 Oct 2014 (Local Time) from KDYL Reporting Station
Few Clouds Few Clouds  
Wind Chill: 18°   Ceiling: Unl
Heat Index: 18°   Visibility: 10mi
Dew Point:   Wind: 16mph
Humidity: 48%   Direction: 310°NW
Pressure: 29.82"   Gusts: 25mph
Location:  40.31°N, 75.13°W
Report Text: KDYL 241654Z AUTO 31014G22KT 10SM FEW048 18/07 A2982 RMK AO2 SLP099 T01780067
Loading
Personal Weather Stations






























Interactive Weather Map
Tropical Storm Tracking
New forecast layout! Learn more

10-Day Weather Forecast

Advertisements
Track Severe Weather on mobile